RYR45 EDDB-EGKK
Flight info
| Callsign | RYR45 |
|---|---|
| Flight time | N/A |
| Altitude | 36000 |
| Route | SUKIP4B/06L SUKIP Y206 BUREL P203 HLZ L980 SAS DCT SOGPO DCT GALSO Q63 ARREK Y4 TEBRA |
| Aircraft | B738/M-SDE2E3FGHIRWXY/LB1 |
Departure
| Time | 2026-05-05 15:16 |
|---|---|
| Airport | Berlin Brandenburg Airport (EDDB) |
Arrival
| Time | N/A |
|---|---|
| Airport | London Gatwick Airport (EGKK) |
| Time | Latitude | Longitude | Altitude | Speed | Heading |
|---|---|---|---|---|---|
| 2026-05-05 14:30 | 52.36620 | 13.49973 | 157 ft | 0 kts | 250° |
| 2026-05-05 15:04 | 52.36626 | 13.50007 | 158 ft | 4 kts | 260° |
| 2026-05-05 15:05 | 52.36626 | 13.50095 | 158 ft | 4 kts | 282° |
| 2026-05-05 15:05 | 52.36619 | 13.50137 | 158 ft | 4 kts | 291° |
| 2026-05-05 15:05 | 52.36608 | 13.50177 | 158 ft | 4 kts | 300° |
| 2026-05-05 15:06 | 52.36593 | 13.50214 | 158 ft | 4 kts | 313° |
| 2026-05-05 15:06 | 52.36574 | 13.50238 | 158 ft | 1 kts | 338° |
| 2026-05-05 15:06 | 52.36574 | 13.50239 | 158 ft | 0 kts | 338° |
| 2026-05-05 15:08 | 52.36574 | 13.50238 | 158 ft | 1 kts | 338° |
| 2026-05-05 15:09 | 52.36595 | 13.50224 | 158 ft | 5 kts | 337° |
| 2026-05-05 15:09 | 52.36633 | 13.50199 | 158 ft | 6 kts | 338° |
| 2026-05-05 15:09 | 52.36673 | 13.50174 | 158 ft | 6 kts | 338° |
| 2026-05-05 15:09 | 52.36708 | 13.50135 | 158 ft | 6 kts | 313° |
| 2026-05-05 15:10 | 52.36719 | 13.50111 | 158 ft | 0 kts | 306° |
| 2026-05-05 15:10 | 52.36721 | 13.50107 | 157 ft | 1 kts | 306° |
| 2026-05-05 15:10 | 52.36725 | 13.50098 | 157 ft | 1 kts | 304° |
| 2026-05-05 15:10 | 52.36731 | 13.50085 | 157 ft | 2 kts | 306° |
| 2026-05-05 15:11 | 52.36741 | 13.50066 | 158 ft | 3 kts | 316° |
| 2026-05-05 15:11 | 52.36769 | 13.50029 | 157 ft | 7 kts | 315° |
| 2026-05-05 15:11 | 52.36778 | 13.49941 | 157 ft | 9 kts | 255° |
| 2026-05-05 15:11 | 52.36757 | 13.49849 | 157 ft | 9 kts | 250° |
| 2026-05-05 15:12 | 52.36735 | 13.49754 | 157 ft | 10 kts | 249° |
| 2026-05-05 15:12 | 52.36707 | 13.49637 | 157 ft | 13 kts | 249° |
| 2026-05-05 15:12 | 52.36671 | 13.49484 | 157 ft | 16 kts | 246° |
| 2026-05-05 15:12 | 52.36628 | 13.49304 | 157 ft | 17 kts | 250° |
| 2026-05-05 15:13 | 52.36586 | 13.49126 | 157 ft | 16 kts | 249° |
| 2026-05-05 15:13 | 52.36545 | 13.48956 | 157 ft | 16 kts | 249° |
| 2026-05-05 15:13 | 52.36507 | 13.48794 | 157 ft | 15 kts | 250° |
| 2026-05-05 15:13 | 52.36470 | 13.48637 | 157 ft | 15 kts | 249° |
| 2026-05-05 15:14 | 52.36437 | 13.48485 | 157 ft | 14 kts | 262° |
| 2026-05-05 15:14 | 52.36449 | 13.48424 | 157 ft | 3 kts | 311° |
| 2026-05-05 15:14 | 52.36477 | 13.48387 | 157 ft | 8 kts | 313° |
| 2026-05-05 15:14 | 52.36486 | 13.48280 | 157 ft | 12 kts | 268° |
| 2026-05-05 15:15 | 52.36554 | 13.48191 | 156 ft | 16 kts | 337° |
| 2026-05-05 15:15 | 52.36682 | 13.48177 | 149 ft | 16 kts | 34° |
| 2026-05-05 15:15 | 52.36708 | 13.48240 | 150 ft | 3 kts | 67° |
| 2026-05-05 15:15 | 52.36739 | 13.48369 | 151 ft | 38 kts | 69° |
| 2026-05-05 15:16 | 52.36924 | 13.49150 | 150 ft | 108 kts | 69° |
| 2026-05-05 15:16 | 52.37269 | 13.50608 | 156 ft | 165 kts | 68° |
| 2026-05-05 15:16 | 52.37710 | 13.52505 | 579 ft | 183 kts | 68° |
| 2026-05-05 15:16 | 52.38162 | 13.54428 | 1424 ft | 181 kts | 68° |
| 2026-05-05 15:17 | 52.38621 | 13.56336 | 2193 ft | 184 kts | 68° |
| 2026-05-05 15:17 | 52.38945 | 13.57700 | 2378 ft | 204 kts | 68° |
| 2026-05-05 15:17 | 52.39488 | 13.59984 | 2609 ft | 226 kts | 68° |
| 2026-05-05 15:17 | 52.40625 | 13.62956 | 3059 ft | 241 kts | 34° |
| 2026-05-05 15:18 | 52.41645 | 13.63759 | 3433 ft | 242 kts | 18° |
| 2026-05-05 15:18 | 52.43271 | 13.64664 | 3810 ft | 257 kts | 18° |
| 2026-05-05 15:18 | 52.45000 | 13.65652 | 4361 ft | 267 kts | 19° |
| 2026-05-05 15:18 | 52.46757 | 13.66681 | 5155 ft | 269 kts | 19° |
| 2026-05-05 15:19 | 52.48526 | 13.67730 | 5920 ft | 272 kts | 19° |
| 2026-05-05 15:19 | 52.50315 | 13.68794 | 6665 ft | 275 kts | 18° |
| 2026-05-05 15:19 | 52.52171 | 13.69240 | 7353 ft | 277 kts | 352° |
| 2026-05-05 15:19 | 52.53979 | 13.68218 | 8085 ft | 277 kts | 326° |
| 2026-05-05 15:20 | 52.54632 | 13.67395 | 8384 ft | 278 kts | 315° |
| 2026-05-05 15:20 | 52.55436 | 13.65665 | 8855 ft | 279 kts | 296° |
| 2026-05-05 15:20 | 52.55917 | 13.62581 | 9544 ft | 281 kts | 271° |
| 2026-05-05 15:20 | 52.55837 | 13.59360 | 10225 ft | 285 kts | 265° |
| 2026-05-05 15:21 | 52.55644 | 13.56002 | 10472 ft | 306 kts | 264° |
| 2026-05-05 15:21 | 52.55410 | 13.52402 | 10650 ft | 327 kts | 264° |
| 2026-05-05 15:21 | 52.55158 | 13.48570 | 10812 ft | 347 kts | 264° |
| 2026-05-05 15:21 | 52.54901 | 13.44587 | 11113 ft | 361 kts | 264° |
| 2026-05-05 15:22 | 52.54641 | 13.40458 | 11656 ft | 366 kts | 264° |
| 2026-05-05 15:22 | 52.54383 | 13.36282 | 12316 ft | 368 kts | 264° |
| 2026-05-05 15:22 | 52.54125 | 13.32074 | 12969 ft | 371 kts | 264° |
| 2026-05-05 15:22 | 52.53867 | 13.27830 | 13596 ft | 375 kts | 264° |
| 2026-05-05 15:23 | 52.53608 | 13.23550 | 14228 ft | 379 kts | 264° |
| 2026-05-05 15:23 | 52.53345 | 13.19228 | 14854 ft | 382 kts | 264° |
| 2026-05-05 15:23 | 52.53079 | 13.14867 | 15503 ft | 385 kts | 264° |
| 2026-05-05 15:23 | 52.52809 | 13.10468 | 16121 ft | 389 kts | 264° |
| 2026-05-05 15:24 | 52.52535 | 13.06027 | 16718 ft | 392 kts | 264° |
| 2026-05-05 15:24 | 52.52257 | 13.01547 | 17302 ft | 396 kts | 264° |
| 2026-05-05 15:24 | 52.51974 | 12.97017 | 17871 ft | 399 kts | 264° |
| 2026-05-05 15:24 | 52.51691 | 12.92516 | 18417 ft | 402 kts | 264° |
| 2026-05-05 15:25 | 52.51401 | 12.87932 | 18950 ft | 406 kts | 264° |
| 2026-05-05 15:25 | 52.51107 | 12.83305 | 19479 ft | 409 kts | 264° |
| 2026-05-05 15:25 | 52.50807 | 12.78630 | 19992 ft | 412 kts | 264° |
| 2026-05-05 15:25 | 52.50505 | 12.73937 | 20488 ft | 415 kts | 264° |
| 2026-05-05 15:26 | 52.50198 | 12.69204 | 20971 ft | 418 kts | 264° |
| 2026-05-05 15:26 | 52.49887 | 12.64447 | 21426 ft | 421 kts | 264° |
| 2026-05-05 15:26 | 52.49572 | 12.59643 | 21884 ft | 424 kts | 264° |
| 2026-05-05 15:26 | 52.49253 | 12.54817 | 22320 ft | 427 kts | 264° |
| 2026-05-05 15:27 | 52.48929 | 12.49948 | 22746 ft | 430 kts | 264° |
| 2026-05-05 15:27 | 52.48601 | 12.45055 | 23164 ft | 433 kts | 264° |
| 2026-05-05 15:27 | 52.48270 | 12.40132 | 23569 ft | 435 kts | 264° |
| 2026-05-05 15:27 | 52.47934 | 12.35180 | 23955 ft | 438 kts | 264° |
| 2026-05-05 15:28 | 52.47599 | 12.30265 | 24331 ft | 440 kts | 263° |
| 2026-05-05 15:28 | 52.47255 | 12.25253 | 24696 ft | 443 kts | 263° |
| 2026-05-05 15:28 | 52.46906 | 12.20211 | 25061 ft | 445 kts | 263° |
| 2026-05-05 15:28 | 52.46554 | 12.15144 | 25404 ft | 448 kts | 263° |
| 2026-05-05 15:29 | 52.46198 | 12.10053 | 25741 ft | 450 kts | 263° |
| 2026-05-05 15:29 | 52.45838 | 12.04940 | 26066 ft | 452 kts | 263° |
| 2026-05-05 15:29 | 52.45475 | 11.99806 | 26378 ft | 455 kts | 263° |
| 2026-05-05 15:29 | 52.45106 | 11.94638 | 26677 ft | 457 kts | 263° |
| 2026-05-05 15:30 | 52.44735 | 11.89457 | 26981 ft | 459 kts | 263° |
| 2026-05-05 15:30 | 52.44358 | 11.84242 | 27270 ft | 461 kts | 263° |
| 2026-05-05 15:30 | 52.43979 | 11.79017 | 27551 ft | 463 kts | 263° |
| 2026-05-05 15:30 | 52.43594 | 11.73755 | 27824 ft | 465 kts | 263° |
| 2026-05-05 15:31 | 52.43205 | 11.68471 | 28086 ft | 467 kts | 263° |
| 2026-05-05 15:31 | 52.42820 | 11.63261 | 28370 ft | 468 kts | 263° |
| 2026-05-05 15:31 | 52.42426 | 11.57974 | 28749 ft | 466 kts | 263° |
| 2026-05-05 15:31 | 52.42031 | 11.52699 | 29165 ft | 464 kts | 263° |
| 2026-05-05 15:32 | 52.41636 | 11.47458 | 29541 ft | 463 kts | 263° |
| 2026-05-05 15:32 | 52.41238 | 11.42212 | 29872 ft | 463 kts | 263° |
| 2026-05-05 15:32 | 52.40839 | 11.36984 | 30201 ft | 463 kts | 263° |
| 2026-05-05 15:32 | 52.40438 | 11.31750 | 30549 ft | 462 kts | 263° |
| 2026-05-05 15:33 | 52.40036 | 11.26540 | 30895 ft | 461 kts | 263° |
| 2026-05-05 15:33 | 52.39631 | 11.21328 | 31208 ft | 460 kts | 263° |
| 2026-05-05 15:33 | 52.39225 | 11.16134 | 31510 ft | 460 kts | 263° |
| 2026-05-05 15:33 | 52.38821 | 11.10988 | 31820 ft | 459 kts | 263° |
| 2026-05-05 15:34 | 52.38412 | 11.05802 | 32140 ft | 459 kts | 263° |
| 2026-05-05 15:34 | 52.37999 | 11.00610 | 32441 ft | 458 kts | 263° |
| 2026-05-05 15:34 | 52.37586 | 10.95435 | 32723 ft | 458 kts | 262° |
| 2026-05-05 15:34 | 52.37172 | 10.90270 | 32997 ft | 457 kts | 262° |
| 2026-05-05 15:35 | 52.36762 | 10.85183 | 33277 ft | 457 kts | 262° |
| 2026-05-05 15:35 | 52.36338 | 10.79971 | 33557 ft | 456 kts | 262° |
| 2026-05-05 15:35 | 52.35838 | 10.74922 | 33829 ft | 455 kts | 259° |
| 2026-05-05 15:35 | 52.35240 | 10.69835 | 34097 ft | 455 kts | 258° |
| 2026-05-05 15:36 | 52.34607 | 10.64768 | 34355 ft | 454 kts | 258° |
| 2026-05-05 15:36 | 52.33966 | 10.59699 | 34610 ft | 453 kts | 258° |
| 2026-05-05 15:36 | 52.33333 | 10.54647 | 34857 ft | 453 kts | 258° |
| 2026-05-05 15:36 | 52.32708 | 10.49609 | 35107 ft | 452 kts | 258° |
| 2026-05-05 15:37 | 52.32096 | 10.44626 | 35376 ft | 451 kts | 259° |
| 2026-05-05 15:37 | 52.31481 | 10.39604 | 35643 ft | 450 kts | 259° |
| 2026-05-05 15:37 | 52.30869 | 10.34605 | 35848 ft | 449 kts | 259° |
| 2026-05-05 15:37 | 52.30253 | 10.29589 | 35999 ft | 450 kts | 258° |
| 2026-05-05 15:38 | 52.29632 | 10.24555 | 35997 ft | 453 kts | 258° |
| 2026-05-05 15:38 | 52.28384 | 10.14506 | 35996 ft | 449 kts | 258° |
| 2026-05-05 15:39 | 52.27136 | 10.04531 | 35998 ft | 447 kts | 258° |
| 2026-05-05 15:39 | 52.25895 | 9.94671 | 35999 ft | 445 kts | 258° |
| 2026-05-05 15:40 | 52.24759 | 9.84763 | 35998 ft | 443 kts | 263° |
| 2026-05-05 15:40 | 52.24110 | 9.74741 | 36006 ft | 444 kts | 265° |
| 2026-05-05 15:41 | 52.23539 | 9.64696 | 36005 ft | 445 kts | 264° |
| 2026-05-05 15:41 | 52.22925 | 9.54674 | 36004 ft | 448 kts | 264° |
| 2026-05-05 15:42 | 52.22266 | 9.44547 | 36005 ft | 450 kts | 264° |
| 2026-05-05 15:42 | 52.21585 | 9.34370 | 36007 ft | 452 kts | 264° |
| 2026-05-05 15:43 | 52.20890 | 9.24158 | 36003 ft | 454 kts | 264° |
| 2026-05-05 15:43 | 52.20187 | 9.13928 | 36008 ft | 454 kts | 263° |
| 2026-05-05 15:44 | 52.19474 | 9.03685 | 36001 ft | 454 kts | 263° |
| 2026-05-05 15:44 | 52.18758 | 8.93529 | 35997 ft | 453 kts | 263° |
| 2026-05-05 15:45 | 52.18032 | 8.83351 | 36000 ft | 451 kts | 263° |
| 2026-05-05 15:45 | 52.17300 | 8.73211 | 35998 ft | 450 kts | 263° |
| 2026-05-05 15:46 | 52.16561 | 8.63102 | 35999 ft | 448 kts | 263° |
| 2026-05-05 15:46 | 52.15815 | 8.53025 | 35998 ft | 447 kts | 263° |
| 2026-05-05 15:47 | 52.15066 | 8.43017 | 36000 ft | 447 kts | 263° |
| 2026-05-05 15:47 | 52.14305 | 8.32968 | 36001 ft | 446 kts | 263° |
| 2026-05-05 15:48 | 52.13536 | 8.22927 | 36004 ft | 447 kts | 263° |
| 2026-05-05 15:48 | 52.12756 | 8.12870 | 36005 ft | 448 kts | 263° |
| 2026-05-05 15:49 | 52.11968 | 8.02808 | 36006 ft | 448 kts | 263° |
| 2026-05-05 15:49 | 52.11175 | 7.92807 | 36000 ft | 449 kts | 263° |
| 2026-05-05 15:50 | 52.10367 | 7.82718 | 36002 ft | 450 kts | 262° |
| 2026-05-05 15:50 | 52.09548 | 7.72604 | 36001 ft | 450 kts | 262° |
| 2026-05-05 15:51 | 52.08720 | 7.62501 | 36000 ft | 451 kts | 262° |
| 2026-05-05 15:51 | 52.07885 | 7.52405 | 35999 ft | 451 kts | 262° |
| 2026-05-05 15:52 | 52.07040 | 7.42303 | 36004 ft | 451 kts | 262° |
| 2026-05-05 15:52 | 52.06191 | 7.32266 | 36001 ft | 450 kts | 262° |
| 2026-05-05 15:53 | 52.05330 | 7.22185 | 36003 ft | 450 kts | 262° |
| 2026-05-05 15:53 | 52.04460 | 7.12104 | 36000 ft | 450 kts | 262° |
| 2026-05-05 15:54 | 52.03582 | 7.02037 | 36003 ft | 450 kts | 262° |
| 2026-05-05 15:54 | 52.02697 | 6.91986 | 36001 ft | 449 kts | 262° |
| 2026-05-05 15:55 | 52.01809 | 6.82007 | 36000 ft | 449 kts | 262° |
| 2026-05-05 15:55 | 52.00907 | 6.71972 | 36001 ft | 449 kts | 262° |
| 2026-05-05 15:56 | 51.99998 | 6.61949 | 36002 ft | 448 kts | 262° |
| 2026-05-05 15:56 | 51.99081 | 6.51936 | 36002 ft | 448 kts | 262° |
| 2026-05-05 15:57 | 51.98157 | 6.41943 | 36004 ft | 448 kts | 261° |
| 2026-05-05 15:57 | 51.97225 | 6.31938 | 36003 ft | 448 kts | 261° |
| 2026-05-05 15:58 | 51.96309 | 6.21940 | 35999 ft | 448 kts | 263° |
| 2026-05-05 15:58 | 51.95656 | 6.11881 | 36001 ft | 448 kts | 264° |
| 2026-05-05 15:59 | 51.95076 | 6.01868 | 36002 ft | 448 kts | 264° |
| 2026-05-05 15:59 | 51.94457 | 5.91793 | 36002 ft | 448 kts | 264° |
| 2026-05-05 16:00 | 51.93804 | 5.81704 | 36001 ft | 449 kts | 264° |
| 2026-05-05 16:00 | 51.93139 | 5.71702 | 36000 ft | 449 kts | 264° |
| 2026-05-05 16:01 | 51.92460 | 5.61635 | 36000 ft | 449 kts | 264° |
| 2026-05-05 16:01 | 51.91773 | 5.51565 | 36000 ft | 449 kts | 264° |
| 2026-05-05 16:02 | 51.91079 | 5.41515 | 35999 ft | 449 kts | 263° |
| 2026-05-05 16:02 | 51.90380 | 5.31519 | 36002 ft | 449 kts | 263° |
| 2026-05-05 16:03 | 51.89668 | 5.21461 | 36000 ft | 449 kts | 263° |
| 2026-05-05 16:03 | 51.88949 | 5.11418 | 36001 ft | 449 kts | 263° |
| 2026-05-05 16:04 | 51.88343 | 5.03063 | 36000 ft | 449 kts | 263° |
| 2026-05-05 16:04 | 51.87608 | 4.93023 | 36003 ft | 449 kts | 263° |
| 2026-05-05 16:05 | 51.86864 | 4.82993 | 35999 ft | 449 kts | 263° |
| 2026-05-05 16:05 | 51.86111 | 4.72950 | 36001 ft | 449 kts | 263° |
| 2026-05-05 16:06 | 51.85354 | 4.62976 | 36001 ft | 449 kts | 263° |
| 2026-05-05 16:06 | 51.84583 | 4.52937 | 36002 ft | 449 kts | 263° |
| 2026-05-05 16:07 | 51.83805 | 4.42910 | 36004 ft | 449 kts | 263° |
| 2026-05-05 16:07 | 51.83018 | 4.32893 | 36000 ft | 449 kts | 263° |
| 2026-05-05 16:08 | 51.82230 | 4.22956 | 35999 ft | 448 kts | 263° |
| 2026-05-05 16:08 | 51.81427 | 4.12960 | 36003 ft | 449 kts | 263° |
| 2026-05-05 16:09 | 51.80616 | 4.02964 | 36002 ft | 448 kts | 262° |
| 2026-05-05 16:09 | 51.79797 | 3.92976 | 36002 ft | 449 kts | 262° |
| 2026-05-05 16:10 | 51.78969 | 3.82985 | 36001 ft | 449 kts | 262° |
| 2026-05-05 16:10 | 51.78133 | 3.73005 | 36005 ft | 449 kts | 262° |
| 2026-05-05 16:11 | 51.77288 | 3.63014 | 35999 ft | 449 kts | 262° |
| 2026-05-05 16:12 | 51.75578 | 3.43116 | 36002 ft | 449 kts | 262° |
| 2026-05-05 16:13 | 51.73370 | 3.17981 | 34159 ft | 455 kts | 262° |
| 2026-05-05 16:13 | 51.72925 | 3.12921 | 33485 ft | 455 kts | 262° |
| 2026-05-05 16:13 | 51.72491 | 3.07865 | 32790 ft | 456 kts | 262° |
| 2026-05-05 16:14 | 51.71629 | 2.97782 | 31709 ft | 449 kts | 262° |
| 2026-05-05 16:14 | 51.70777 | 2.87955 | 30721 ft | 441 kts | 262° |